Time;durP1;ratioP1;P1;durP2;ratioP2;P2;SDS_P1;SDS_P2;PMS_P1;PMS_P2;Temp;Humidity;BMP_temperature;BMP_pressure;BME280_temperature;BME280_humidity;BME280_pressure;Samples;Min_cycle;Max_cycle;Signal;HPM_P1;HPM_P2
2021/08/08 00:00:18;;;;;;;2.35;1.83;;;23.00;99.90;;;;;;5012522;28;20125;-77
2021/08/08 00:02:44;;;;;;;5.28;1.98;;;23.00;99.90;;;;;;5009933;28;20113;-77
2021/08/08 00:05:11;;;;;;;5.82;2.53;;;23.00;99.90;;;;;;5012920;28;20030;-77
2021/08/08 00:07:37;;;;;;;2.42;2.22;;;22.90;99.90;;;;;;5013256;28;20022;-77
2021/08/08 00:10:09;;;;;;;4.60;2.30;;;22.80;99.90;;;;;;5012834;28;20044;-77
2021/08/08 00:12:34;;;;;;;8.10;2.35;;;22.80;99.90;;;;;;5012892;28;20392;-76
2021/08/08 00:15:01;;;;;;;5.82;2.40;;;22.80;99.90;;;;;;5012208;28;20148;-77
2021/08/08 00:17:26;;;;;;;4.45;2.08;;;22.80;99.90;;;;;;5012378;28;20388;-76
2021/08/08 00:19:53;;;;;;;2.55;2.35;;;22.80;99.90;;;;;;4994236;28;20030;-76
2021/08/08 00:22:19;;;;;;;2.55;2.25;;;22.80;99.90;;;;;;5012391;28;20029;-76
2021/08/08 00:24:45;;;;;;;2.65;2.28;;;22.80;99.90;;;;;;5011658;28;20395;-76
2021/08/08 00:27:10;;;;;;;2.85;2.28;;;22.80;99.90;;;;;;5012130;28;20026;-76
2021/08/08 00:29:36;;;;;;;7.70;2.40;;;22.80;99.90;;;;;;5012043;28;20180;-76
2021/08/08 00:32:02;;;;;;;2.40;2.28;;;22.80;99.90;;;;;;5027240;28;20041;-76
2021/08/08 00:34:28;;;;;;;4.70;2.17;;;22.80;99.90;;;;;;5012002;28;20990;-76
2021/08/08 00:36:53;;;;;;;4.63;2.10;;;22.70;99.90;;;;;;5012183;28;20026;-77
2021/08/08 00:39:20;;;;;;;3.78;2.17;;;22.70;99.90;;;;;;5011938;28;20030;-77
2021/08/08 00:41:46;;;;;;;2.22;1.98;;;22.70;99.90;;;;;;5013048;28;20018;-76
2021/08/08 00:44:12;;;;;;;2.65;2.47;;;22.70;99.90;;;;;;5015490;28;20506;-76
2021/08/08 00:46:38;;;;;;;3.72;2.45;;;22.70;99.90;;;;;;5016163;28;20053;-77
2021/08/08 00:49:04;;;;;;;5.90;2.45;;;22.70;99.90;;;;;;5016415;28;20479;-76
2021/08/08 00:51:32;;;;;;;4.40;2.40;;;22.70;99.90;;;;;;4984439;28;20472;-77
2021/08/08 00:53:58;;;;;;;2.28;2.17;;;22.60;99.90;;;;;;4996895;28;20113;-77
2021/08/08 00:56:25;;;;;;;7.80;2.30;;;22.60;99.90;;;;;;4996589;28;20034;-77
2021/08/08 00:58:50;;;;;;;2.47;2.28;;;22.60;99.90;;;;;;4996570;28;20026;-77
2021/08/08 01:01:20;;;;;;;6.40;2.58;;;22.60;99.90;;;;;;4979292;28;20350;-76
2021/08/08 01:03:46;;;;;;;2.47;2.28;;;22.60;99.90;;;;;;5011870;28;20486;-76
2021/08/08 01:06:39;;;;;;;3.08;2.78;;;22.50;99.90;;;;;;5016383;28;20026;-76
2021/08/08 01:09:08;;;;;;;3.85;2.08;;;22.50;99.90;;;;;;4998508;28;20033;-76
2021/08/08 01:11:35;;;;;;;2.58;2.22;;;22.50;99.90;;;;;;5016067;28;20111;-77
2021/08/08 01:14:02;;;;;;;3.83;2.33;;;22.40;99.90;;;;;;5015807;28;20638;-76
2021/08/08 01:16:28;;;;;;;4.80;2.08;;;22.40;99.90;;;;;;5016084;28;20037;-76
2021/08/08 01:18:54;;;;;;;4.28;2.08;;;22.50;99.90;;;;;;5015881;28;20096;-76
2021/08/08 01:21:25;;;;;;;7.68;2.80;;;22.50;99.90;;;;;;5015787;28;20113;-76
2021/08/08 01:24:02;;;;;;;3.33;2.33;;;22.50;99.90;;;;;;5015910;28;20022;-76
2021/08/08 01:26:30;;;;;;;2.15;2.05;;;22.40;99.90;;;;;;5015900;28;20436;-76
2021/08/08 01:28:58;;;;;;;3.67;2.47;;;22.50;99.90;;;;;;5015868;28;20025;-77
2021/08/08 01:31:24;;;;;;;4.68;2.42;;;22.50;99.90;;;;;;5015575;28;20105;-76
2021/08/08 01:33:50;;;;;;;2.50;2.30;;;22.50;99.90;;;;;;5015858;28;20371;-77
2021/08/08 01:36:18;;;;;;;2.65;2.45;;;22.50;99.90;;;;;;5015404;28;20014;-77
2021/08/08 01:38:49;;;;;;;2.65;1.90;;;22.50;99.90;;;;;;5015364;28;20041;-77
2021/08/08 01:41:17;;;;;;;5.03;2.30;;;22.50;99.90;;;;;;5015299;28;20034;-76
2021/08/08 01:43:48;;;;;;;2.33;2.13;;;22.50;99.90;;;;;;5015300;28;20040;-77
2021/08/08 01:46:15;;;;;;;4.63;2.22;;;22.40;99.90;;;;;;5015400;28;20021;-76
2021/08/08 01:48:46;;;;;;;2.25;2.15;;;22.50;99.90;;;;;;5015168;28;20033;-76
2021/08/08 01:51:12;;;;;;;3.75;2.15;;;22.40;99.90;;;;;;5015552;28;20014;-77
2021/08/08 01:53:40;;;;;;;6.15;2.70;;;22.40;99.90;;;;;;4997136;28;20034;-77
2021/08/08 01:56:06;;;;;;;6.05;2.35;;;22.30;99.90;;;;;;4997122;28;20022;-76
2021/08/08 01:58:32;;;;;;;4.70;2.03;;;22.40;99.90;;;;;;5014974;28;20022;-76
2021/08/08 02:00:58;;;;;;;6.45;2.58;;;22.30;99.90;;;;;;5014897;28;20053;-77
2021/08/08 02:03:37;;;;;;;2.15;1.95;;;22.30;99.90;;;;;;5015116;28;20076;-76
2021/08/08 02:06:05;;;;;;;9.73;2.45;;;22.30;99.90;;;;;;5014028;28;20061;-77
2021/08/08 02:08:30;;;;;;;6.28;2.05;;;22.20;99.90;;;;;;5014956;28;20034;-77
2021/08/08 02:10:57;;;;;;;7.10;2.63;;;22.20;99.90;;;;;;4996995;28;20044;-77
2021/08/08 02:13:22;;;;;;;2.50;2.30;;;22.20;99.90;;;;;;4996959;28;20056;-77
2021/08/08 02:15:48;;;;;;;3.63;2.13;;;22.20;99.90;;;;;;5030128;28;20025;-76
2021/08/08 02:18:14;;;;;;;3.25;2.55;;;22.20;99.90;;;;;;5029902;28;20117;-77
2021/08/08 02:20:40;;;;;;;3.20;2.20;;;22.20;99.90;;;;;;5014884;28;20030;-77
2021/08/08 02:23:06;;;;;;;6.32;2.13;;;22.20;99.90;;;;;;5014831;28;20022;-77
2021/08/08 02:25:31;;;;;;;4.00;2.75;;;22.20;99.90;;;;;;5013900;28;20030;-76
2021/08/08 02:27:57;;;;;;;5.78;1.73;;;22.20;99.90;;;;;;5014219;28;20118;-76
2021/08/08 02:30:23;;;;;;;7.65;2.70;;;22.20;99.90;;;;;;5029498;28;20547;-76
2021/08/08 02:32:49;;;;;;;3.50;2.30;;;22.20;99.90;;;;;;5029850;28;20060;-76
2021/08/08 02:35:15;;;;;;;3.20;2.20;;;22.20;99.90;;;;;;5014360;28;20475;-76
2021/08/08 02:37:41;;;;;;;2.60;2.20;;;22.20;99.90;;;;;;5014239;28;20041;-76
2021/08/08 02:40:07;;;;;;;2.35;2.15;;;22.20;99.90;;;;;;5014377;28;20025;-76
2021/08/08 02:42:33;;;;;;;2.28;2.10;;;22.10;99.90;;;;;;5014377;28;20029;-77
2021/08/08 02:44:59;;;;;;;3.38;2.30;;;22.10;99.90;;;;;;5014103;28;20411;-76
2021/08/08 02:47:27;;;;;;;13.68;2.55;;;22.10;99.90;;;;;;5013560;28;20029;-76
2021/08/08 02:49:53;;;;;;;4.90;2.50;;;22.10;99.90;;;;;;5014468;28;20364;-76
2021/08/08 02:52:19;;;;;;;3.15;2.50;;;22.10;99.90;;;;;;5014525;28;20022;-76
2021/08/08 02:54:45;;;;;;;7.10;2.35;;;22.00;99.90;;;;;;4996584;28;20045;-76
2021/08/08 02:57:10;;;;;;;10.63;2.35;;;22.00;99.90;;;;;;5014281;28;20020;-77
2021/08/08 02:59:36;;;;;;;4.18;2.45;;;22.00;99.90;;;;;;5014657;28;20471;-77
2021/08/08 03:02:02;;;;;;;3.33;2.05;;;22.10;99.90;;;;;;5014353;28;20026;-77
2021/08/08 03:04:28;;;;;;;2.58;2.38;;;22.10;99.90;;;;;;4995843;28;20029;-77
2021/08/08 03:06:54;;;;;;;3.53;2.75;;;22.10;99.90;;;;;;5014303;28;20022;-77
2021/08/08 03:09:20;;;;;;;3.63;2.17;;;22.10;99.90;;;;;;5013792;28;20030;-77
2021/08/08 03:11:46;;;;;;;2.47;2.28;;;22.10;99.90;;;;;;5013770;28;20037;-77
2021/08/08 03:14:16;;;;;;;3.63;2.47;;;22.10;99.90;;;;;;5014091;28;20022;-77
2021/08/08 03:16:42;;;;;;;9.75;2.10;;;22.00;99.90;;;;;;4997821;28;20583;-77
2021/08/08 03:19:09;;;;;;;2.88;2.63;;;22.10;99.90;;;;;;4976459;28;20076;-77
2021/08/08 03:21:35;;;;;;;5.10;2.50;;;22.00;99.90;;;;;;4976819;28;20057;-77
2021/08/08 03:24:01;;;;;;;2.47;2.20;;;21.90;99.90;;;;;;4994213;28;20065;-77
2021/08/08 03:26:28;;;;;;;8.95;2.35;;;21.80;99.90;;;;;;4976534;28;20026;-77
2021/08/08 03:28:53;;;;;;;2.65;2.45;;;21.90;99.90;;;;;;4992614;28;20034;-77
2021/08/08 03:31:19;;;;;;;3.00;2.10;;;21.80;99.90;;;;;;5013604;28;20029;-76
2021/08/08 03:33:45;;;;;;;3.17;2.90;;;21.90;99.90;;;;;;4996191;28;20018;-77
2021/08/08 03:36:11;;;;;;;5.68;2.60;;;21.90;99.90;;;;;;4995858;28;20072;-77
2021/08/08 03:38:38;;;;;;;4.43;2.75;;;21.80;99.90;;;;;;5013537;28;20117;-77
2021/08/08 03:41:04;;;;;;;5.55;2.55;;;21.80;99.90;;;;;;5013222;28;20036;-77
2021/08/08 03:43:30;;;;;;;4.35;2.30;;;21.90;99.90;;;;;;4995774;28;20454;-77
2021/08/08 03:45:56;;;;;;;2.67;2.45;;;21.80;99.90;;;;;;5013362;28;20026;-76
2021/08/08 03:48:22;;;;;;;5.15;2.47;;;21.80;99.90;;;;;;4995718;28;20141;-77
2021/08/08 03:50:47;;;;;;;2.95;2.45;;;21.80;99.90;;;;;;4995534;28;20033;-77
2021/08/08 03:53:13;;;;;;;6.18;2.60;;;21.80;99.90;;;;;;5013280;28;20045;-77
2021/08/08 03:55:39;;;;;;;3.90;2.80;;;21.70;99.90;;;;;;5013262;28;20034;-77
2021/08/08 03:58:05;;;;;;;7.53;2.80;;;21.70;99.90;;;;;;5013176;28;20642;-77
2021/08/08 04:00:30;;;;;;;8.77;2.83;;;21.70;99.90;;;;;;5012966;28;20022;-77
2021/08/08 04:02:56;;;;;;;2.72;2.47;;;21.70;99.90;;;;;;5012994;28;20488;-77
2021/08/08 04:05:22;;;;;;;3.08;2.78;;;21.70;99.90;;;;;;4995475;28;20033;-76
2021/08/08 04:07:48;;;;;;;3.40;2.25;;;21.80;99.90;;;;;;4994442;28;20435;-76
2021/08/08 04:10:15;;;;;;;4.75;2.22;;;21.80;99.90;;;;;;4995206;28;20083;-77
2021/08/08 04:12:41;;;;;;;3.22;2.50;;;21.80;99.90;;;;;;5012718;28;20403;-77
2021/08/08 04:15:08;;;;;;;2.45;2.10;;;21.80;99.90;;;;;;5013182;28;20030;-77
2021/08/08 04:17:33;;;;;;;3.70;2.40;;;21.70;99.90;;;;;;5016513;28;20030;-76
2021/08/08 04:19:59;;;;;;;2.97;2.40;;;21.70;99.90;;;;;;5016604;28;20030;-77
2021/08/08 04:22:25;;;;;;;7.85;2.90;;;21.80;99.90;;;;;;5016979;28;20025;-77
2021/08/08 04:24:51;;;;;;;4.82;2.45;;;21.80;99.90;;;;;;5016668;28;20026;-77
2021/08/08 04:27:18;;;;;;;4.30;2.28;;;21.80;99.90;;;;;;5016261;28;20018;-76
2021/08/08 04:29:44;;;;;;;3.22;2.25;;;21.80;99.90;;;;;;4999097;28;20034;-77
2021/08/08 04:32:10;;;;;;;3.80;2.30;;;21.80;99.90;;;;;;5016786;28;20076;-77
2021/08/08 04:34:35;;;;;;;4.03;2.40;;;21.70;99.90;;;;;;5016747;28;20034;-76
2021/08/08 04:37:01;;;;;;;2.58;2.38;;;21.60;99.90;;;;;;5016023;28;20107;-76
2021/08/08 04:39:27;;;;;;;5.03;3.05;;;21.70;99.90;;;;;;5016544;28;20033;-77
2021/08/08 04:41:53;;;;;;;2.78;2.53;;;21.70;99.90;;;;;;5016613;28;20029;-76
2021/08/08 04:44:20;;;;;;;2.70;2.50;;;21.60;99.90;;;;;;5016482;28;20113;-77
2021/08/08 04:46:46;;;;;;;9.23;2.80;;;21.60;99.90;;;;;;4998459;28;20395;-76
2021/08/08 04:49:12;;;;;;;3.38;2.20;;;21.60;99.90;;;;;;5016589;28;20029;-77
2021/08/08 04:51:37;;;;;;;3.03;2.33;;;21.60;99.90;;;;;;5016305;28;20034;-77
2021/08/08 04:54:03;;;;;;;3.28;2.90;;;21.60;99.90;;;;;;5016169;28;20513;-76
2021/08/08 04:56:29;;;;;;;3.58;2.67;;;21.60;99.90;;;;;;5016189;28;20120;-77
2021/08/08 04:58:55;;;;;;;5.60;2.75;;;21.70;99.90;;;;;;5016079;28;20081;-77
2021/08/08 05:01:21;;;;;;;4.80;2.58;;;21.80;99.90;;;;;;5016435;28;20033;-77
2021/08/08 05:03:46;;;;;;;3.35;2.67;;;21.80;99.90;;;;;;5015831;28;20538;-76
2021/08/08 05:06:12;;;;;;;2.60;2.35;;;21.80;99.90;;;;;;5015580;28;20471;-76
2021/08/08 05:08:38;;;;;;;3.97;3.03;;;21.80;99.90;;;;;;5015747;28;20026;-76
2021/08/08 05:11:04;;;;;;;6.10;2.70;;;21.80;99.90;;;;;;5016311;28;20034;-76
2021/08/08 05:13:30;;;;;;;3.60;2.50;;;21.80;99.90;;;;;;5016126;28;20121;-76
2021/08/08 05:15:57;;;;;;;4.68;2.90;;;21.90;99.90;;;;;;5015370;28;20026;-76
2021/08/08 05:18:23;;;;;;;3.92;2.35;;;22.00;99.90;;;;;;5015680;28;20034;-76
2021/08/08 05:20:48;;;;;;;4.32;2.63;;;22.00;99.90;;;;;;5015433;28;20034;-76
2021/08/08 05:23:14;;;;;;;5.25;2.72;;;22.00;99.90;;;;;;5016013;28;20022;-77
2021/08/08 05:25:40;;;;;;;2.92;2.40;;;22.10;99.90;;;;;;5015890;28;20029;-76
2021/08/08 05:28:06;;;;;;;3.83;2.67;;;22.10;99.90;;;;;;4996739;28;20030;-77
2021/08/08 05:30:32;;;;;;;5.18;2.72;;;22.10;99.90;;;;;;5015537;28;20034;-77
2021/08/08 05:32:58;;;;;;;2.90;2.47;;;22.10;99.90;;;;;;5015966;28;20044;-77
2021/08/08 05:35:23;;;;;;;5.93;3.08;;;22.20;99.90;;;;;;4997660;28;20038;-77
2021/08/08 05:37:49;;;;;;;2.58;2.38;;;22.20;99.90;;;;;;5015296;28;20022;-77
2021/08/08 05:40:15;;;;;;;5.95;3.05;;;22.30;99.90;;;;;;5015659;28;20119;-77
2021/08/08 05:42:48;;;;;;;2.88;2.58;;;22.30;99.90;;;;;;5015347;28;20014;-76
2021/08/08 05:45:14;;;;;;;3.13;2.83;;;22.30;99.90;;;;;;5015486;28;20033;-76
2021/08/08 05:47:40;;;;;;;4.68;2.38;;;22.30;99.90;;;;;;5015444;28;20379;-76
2021/08/08 05:50:06;;;;;;;2.67;2.47;;;22.30;99.90;;;;;;5015476;28;20049;-77
2021/08/08 05:52:31;;;;;;;2.83;2.50;;;22.40;99.90;;;;;;5015373;28;20026;-76
2021/08/08 05:55:00;;;;;;;2.58;2.38;;;22.50;99.90;;;;;;5015389;28;20434;-76
2021/08/08 05:57:26;;;;;;;5.20;2.90;;;22.50;99.90;;;;;;5015181;28;20033;-76
2021/08/08 05:59:52;;;;;;;2.53;2.17;;;22.60;99.90;;;;;;5015195;28;20030;-76
2021/08/08 06:02:17;;;;;;;3.40;2.65;;;22.60;99.90;;;;;;5015178;28;20608;-76
2021/08/08 06:04:47;;;;;;;4.65;2.60;;;22.70;99.90;;;;;;5014989;28;20022;-77
2021/08/08 06:07:12;;;;;;;6.57;2.67;;;22.70;99.90;;;;;;5015019;28;20022;-77
2021/08/08 06:09:38;;;;;;;7.30;2.75;;;22.80;99.90;;;;;;5015075;28;20080;-76
2021/08/08 06:12:04;;;;;;;2.40;2.20;;;22.80;99.90;;;;;;5014875;28;20392;-77
2021/08/08 06:14:30;;;;;;;4.93;2.33;;;22.90;99.90;;;;;;5015043;28;20041;-76
2021/08/08 06:16:55;;;;;;;2.70;2.50;;;22.90;99.90;;;;;;5014797;28;20018;-77
2021/08/08 06:19:21;;;;;;;4.85;2.38;;;23.00;99.90;;;;;;5014888;28;20456;-76
2021/08/08 06:21:47;;;;;;;6.55;2.85;;;23.10;99.90;;;;;;5014704;28;20032;-76
2021/08/08 06:24:12;;;;;;;6.18;2.60;;;23.10;99.90;;;;;;4997218;28;20065;-77
2021/08/08 06:26:38;;;;;;;4.20;2.53;;;23.20;99.90;;;;;;5014304;28;20029;-77
2021/08/08 06:29:05;;;;;;;2.70;2.50;;;23.30;99.90;;;;;;5014388;28;20454;-76
2021/08/08 06:31:32;;;;;;;7.05;2.53;;;23.30;99.90;;;;;;5030162;28;20399;-77
2021/08/08 06:33:58;;;;;;;5.43;2.83;;;23.40;99.90;;;;;;5014270;28;20395;-76
2021/08/08 06:36:24;;;;;;;4.47;2.47;;;23.40;99.90;;;;;;5014027;28;20032;-77
2021/08/08 06:38:51;;;;;;;4.13;2.50;;;23.50;99.90;;;;;;5028256;28;20038;-77
2021/08/08 06:41:17;;;;;;;4.25;2.60;;;23.60;99.90;;;;;;5029410;28;20025;-76
2021/08/08 06:43:43;;;;;;;3.63;2.70;;;23.70;99.90;;;;;;5029480;28;20022;-76
2021/08/08 06:46:08;;;;;;;3.58;2.70;;;23.70;99.90;;;;;;5014492;28;20344;-77
2021/08/08 06:48:35;;;;;;;6.03;2.88;;;23.80;99.90;;;;;;4996498;28;20029;-77
2021/08/08 06:51:02;;;;;;;4.05;2.40;;;23.80;99.90;;;;;;5014294;28;20113;-77
2021/08/08 06:53:27;;;;;;;3.83;2.78;;;23.90;99.90;;;;;;5013970;28;20084;-77
2021/08/08 06:55:53;;;;;;;4.85;3.45;;;23.90;99.90;;;;;;5013275;28;20416;-77
2021/08/08 06:58:19;;;;;;;4.88;2.50;;;24.00;99.90;;;;;;4995916;28;20057;-77
2021/08/08 07:00:45;;;;;;;6.22;2.80;;;24.00;99.90;;;;;;5013410;28;20029;-77
2021/08/08 07:03:11;;;;;;;2.78;2.45;;;24.00;99.90;;;;;;5013933;28;20056;-77
2021/08/08 07:05:37;;;;;;;3.38;2.58;;;24.10;99.90;;;;;;4996006;28;20050;-77
2021/08/08 07:08:04;;;;;;;4.18;3.00;;;24.20;99.90;;;;;;5013354;28;20024;-76
2021/08/08 07:10:30;;;;;;;7.82;3.00;;;24.20;99.90;;;;;;4995725;28;20030;-77
2021/08/08 07:12:55;;;;;;;5.45;3.20;;;24.30;99.90;;;;;;5013095;28;20099;-76
2021/08/08 07:15:21;;;;;;;4.43;2.53;;;24.30;99.90;;;;;;5013556;28;20502;-76
2021/08/08 07:17:47;;;;;;;3.00;2.42;;;24.30;99.90;;;;;;5013204;28;20134;-76
2021/08/08 07:20:19;;;;;;;3.70;2.70;;;24.40;99.90;;;;;;5013274;28;20052;-76
2021/08/08 07:22:44;;;;;;;;;;;24.40;99.90;;;;;;4992735;28;20057;-77
2021/08/08 07:25:10;;;;;;;6.90;2.58;;;24.50;99.90;;;;;;5012813;28;19979;-77
2021/08/08 07:27:36;;;;;;;2.63;2.42;;;24.50;99.90;;;;;;4996843;28;20026;-77
2021/08/08 07:30:02;;;;;;;2.60;2.40;;;24.60;99.90;;;;;;5013164;28;20557;-77
2021/08/08 07:32:28;;;;;;;5.30;2.45;;;24.60;99.90;;;;;;5013186;28;20053;-77
2021/08/08 07:34:53;;;;;;;3.78;2.28;;;24.60;99.90;;;;;;5013520;28;20479;-76
2021/08/08 07:37:21;;;;;;;5.57;2.80;;;24.70;99.90;;;;;;5013125;28;20036;-77
2021/08/08 07:39:47;;;;;;;6.38;2.53;;;24.80;99.90;;;;;;5012959;28;20117;-77
2021/08/08 07:42:13;;;;;;;3.20;2.95;;;24.90;99.90;;;;;;5013687;28;20049;-77
2021/08/08 07:44:38;;;;;;;5.97;2.55;;;24.80;99.90;;;;;;5013347;28;20036;-77
2021/08/08 07:47:04;;;;;;;5.78;2.65;;;24.90;99.90;;;;;;5012785;28;20029;-76
2021/08/08 07:49:30;;;;;;;5.72;2.70;;;24.90;99.90;;;;;;5028025;28;20032;-77
2021/08/08 07:51:56;;;;;;;4.72;2.80;;;25.00;99.90;;;;;;5012896;28;20022;-77
2021/08/08 07:54:21;;;;;;;5.43;3.45;;;25.00;99.90;;;;;;5012939;28;20080;-77
2021/08/08 07:56:47;;;;;;;3.70;3.30;;;25.10;99.90;;;;;;5028279;28;20033;-77
2021/08/08 07:59:13;;;;;;;4.38;2.30;;;25.20;99.90;;;;;;5012755;28;20030;-76
2021/08/08 08:01:41;;;;;;;4.93;2.88;;;25.20;99.90;;;;;;5012866;28;20045;-76
2021/08/08 08:04:08;;;;;;;3.35;3.10;;;25.30;99.90;;;;;;5027981;28;20017;-77
2021/08/08 08:06:34;;;;;;;6.20;2.80;;;25.40;99.90;;;;;;5012736;28;20026;-77
2021/08/08 08:08:59;;;;;;;7.88;3.15;;;25.50;99.90;;;;;;4995650;28;20459;-77
2021/08/08 08:11:25;;;;;;;3.15;2.83;;;25.50;99.90;;;;;;5013034;28;20032;-76
2021/08/08 08:13:51;;;;;;;2.75;2.55;;;25.60;99.90;;;;;;5012938;28;20128;-76
2021/08/08 08:16:17;;;;;;;5.47;3.10;;;25.50;99.90;;;;;;5013280;28;20112;-77
2021/08/08 08:18:42;;;;;;;4.25;3.22;;;25.60;99.90;;;;;;5012794;28;20025;-77
2021/08/08 08:21:08;;;;;;;5.63;2.92;;;25.60;99.90;;;;;;5012960;28;20034;-77
2021/08/08 08:23:34;;;;;;;5.53;3.17;;;25.70;99.90;;;;;;5013040;28;20155;-77
2021/08/08 08:26:00;;;;;;;5.63;2.60;;;25.80;99.90;;;;;;5013100;28;20033;-77
2021/08/08 08:28:29;;;;;;;2.90;2.40;;;25.80;99.90;;;;;;4995268;28;20061;-77
2021/08/08 08:30:58;;;;;;;4.15;2.75;;;25.80;99.90;;;;;;5012712;28;20030;-77
2021/08/08 08:33:25;;;;;;;6.07;3.63;;;25.80;99.90;;;;;;5012709;28;20620;-76
2021/08/08 08:35:50;;;;;;;3.15;2.70;;;25.90;99.90;;;;;;4994783;28;20045;-77
2021/08/08 08:38:17;;;;;;;7.20;2.72;;;25.90;99.90;;;;;;5012848;28;20029;-77
2021/08/08 08:40:43;;;;;;;4.32;2.97;;;25.90;99.90;;;;;;5012687;28;20034;-77
2021/08/08 08:43:10;;;;;;;4.07;2.42;;;26.00;99.90;;;;;;5012589;28;20018;-77
2021/08/08 08:45:45;;;;;;;5.97;2.70;;;26.00;99.90;;;;;;4995205;28;20411;-77
2021/08/08 08:48:11;;;;;;;3.08;2.78;;;26.00;99.90;;;;;;5012542;28;20030;-77
2021/08/08 08:50:38;;;;;;;3.20;2.30;;;26.00;99.90;;;;;;4995056;28;20415;-77
2021/08/08 08:53:05;;;;;;;3.50;2.83;;;26.10;99.90;;;;;;5012703;28;20483;-77
2021/08/08 08:55:31;;;;;;;4.18;2.60;;;26.10;99.90;;;;;;5011956;28;20433;-77
2021/08/08 08:57:58;;;;;;;5.15;2.83;;;26.10;99.90;;;;;;5011960;28;20120;-77
2021/08/08 09:00:24;;;;;;;7.30;2.85;;;26.20;99.90;;;;;;5012488;28;20109;-77
2021/08/08 09:02:51;;;;;;;5.80;3.33;;;26.30;99.90;;;;;;5013639;28;20053;-77
2021/08/08 09:05:19;;;;;;;4.95;3.25;;;26.40;99.90;;;;;;5016376;28;20577;-77
2021/08/08 09:07:45;;;;;;;5.20;2.90;;;26.40;99.90;;;;;;4997863;28;20100;-77
2021/08/08 09:10:15;;;;;;;5.43;2.38;;;26.60;99.90;;;;;;4997668;28;20492;-77
2021/08/08 09:12:41;;;;;;;4.65;2.50;;;26.70;99.90;;;;;;5014143;28;20438;-77
2021/08/08 09:15:09;;;;;;;7.57;2.92;;;26.80;99.90;;;;;;4978337;28;20492;-77
2021/08/08 09:17:37;;;;;;;3.05;2.75;;;26.80;99.90;;;;;;4996045;28;20403;-77
2021/08/08 09:20:11;;;;;;;3.65;2.90;;;26.80;99.70;;;;;;4997599;28;20034;-77
2021/08/08 09:22:38;;;;;;;6.65;3.47;;;26.70;99.00;;;;;;4997331;28;20022;-77
2021/08/08 09:25:05;;;;;;;2.97;2.35;;;26.70;98.80;;;;;;5014764;28;20026;-76
2021/08/08 09:27:36;;;;;;;3.30;2.45;;;26.60;98.80;;;;;;5015222;28;20530;-76
2021/08/08 09:30:19;;;;;;;6.22;3.10;;;26.50;98.90;;;;;;5014777;28;20033;-76
2021/08/08 09:32:44;;;;;;;3.20;2.80;;;26.50;99.30;;;;;;5014949;28;20033;-77
2021/08/08 09:35:19;;;;;;;3.08;2.40;;;26.60;99.10;;;;;;5029483;28;20029;-76
2021/08/08 09:37:59;;;;;;;5.00;2.50;;;26.70;98.40;;;;;;5011748;28;20081;-77
2021/08/08 09:40:25;;;;;;;4.30;2.72;;;26.80;97.40;;;;;;5014651;28;20372;-77
2021/08/08 09:42:52;;;;;;;3.40;2.70;;;26.90;97.10;;;;;;5009793;28;20487;-77
2021/08/08 09:45:18;;;;;;;2.78;2.53;;;27.00;98.50;;;;;;4997970;28;20030;-77
2021/08/08 09:47:46;;;;;;;2.55;2.35;;;27.30;98.90;;;;;;5014749;28;20566;-77
2021/08/08 09:50:19;;;;;;;4.88;3.00;;;27.50;97.10;;;;;;5014763;28;20026;-77
2021/08/08 09:52:53;;;;;;;3.25;2.85;;;27.70;97.90;;;;;;5013383;28;20022;-77
2021/08/08 09:55:27;;;;;;;7.32;2.70;;;27.70;95.70;;;;;;5006366;28;20030;-77
2021/08/08 09:57:54;;;;;;;8.52;2.25;;;27.90;95.90;;;;;;4995984;28;20076;-77
2021/08/08 10:00:35;;;;;;;5.75;3.13;;;27.80;95.10;;;;;;4996861;28;20026;-77
2021/08/08 10:03:02;;;;;;;2.42;2.22;;;27.80;95.20;;;;;;5006936;28;20569;-77
2021/08/08 10:05:29;;;;;;;4.82;2.53;;;27.70;94.90;;;;;;5010639;28;20026;-77
2021/08/08 10:07:56;;;;;;;3.63;2.67;;;27.90;95.40;;;;;;5016021;28;20022;-77
2021/08/08 10:10:23;;;;;;;4.40;3.05;;;27.90;94.60;;;;;;5011619;28;20045;-77
2021/08/08 10:12:57;;;;;;;4.75;3.10;;;27.90;95.50;;;;;;5009700;28;20046;-77
2021/08/08 10:15:23;;;;;;;4.88;2.75;;;27.90;95.10;;;;;;5011389;28;20542;-77
2021/08/08 10:17:50;;;;;;;3.78;2.40;;;28.00;94.60;;;;;;5010119;28;20118;-77
2021/08/08 10:20:16;;;;;;;5.65;2.63;;;28.00;94.00;;;;;;5012253;28;20076;-77
2021/08/08 10:22:44;;;;;;;2.70;2.50;;;27.90;94.20;;;;;;4991628;28;20779;-77
2021/08/08 10:25:11;;;;;;;3.45;2.95;;;27.80;94.70;;;;;;5012012;28;20036;-77
2021/08/08 10:27:37;;;;;;;4.68;2.58;;;27.90;93.70;;;;;;5009916;28;20022;-77
2021/08/08 10:30:05;;;;;;;3.83;2.40;;;27.90;95.00;;;;;;5010777;28;20033;-77
2021/08/08 10:32:31;;;;;;;6.20;2.30;;;28.00;93.60;;;;;;5009807;28;20166;-77
2021/08/08 10:34:57;;;;;;;8.63;3.05;;;28.10;93.90;;;;;;5011604;28;20034;-77
2021/08/08 10:37:25;;;;;;;5.60;2.63;;;28.20;93.30;;;;;;4997220;28;20029;-77
2021/08/08 10:39:52;;;;;;;3.35;2.80;;;28.20;93.50;;;;;;5013273;28;20037;-77
2021/08/08 10:42:20;;;;;;;6.35;2.95;;;28.30;94.20;;;;;;5028993;28;20022;-77
2021/08/08 10:44:59;;;;;;;9.95;3.08;;;28.50;94.50;;;;;;4995281;28;20022;-77
2021/08/08 10:47:25;;;;;;;3.22;2.50;;;28.50;93.20;;;;;;5008833;28;20022;-77
2021/08/08 10:49:51;;;;;;;2.70;2.50;;;28.60;93.00;;;;;;5011917;28;20028;-77
2021/08/08 10:52:16;;;;;;;3.78;2.70;;;28.70;91.90;;;;;;5008328;28;20450;-77
2021/08/08 10:54:46;;;;;;;5.55;2.55;;;28.80;92.60;;;;;;5011310;28;20100;-77
2021/08/08 10:57:13;;;;;;;5.55;2.92;;;28.90;91.90;;;;;;5008760;28;20129;-77
2021/08/08 10:59:44;;;;;;;6.03;2.17;;;29.10;92.90;;;;;;4993110;28;20387;-77
2021/08/08 11:02:15;;;;;;;5.35;2.30;;;29.00;91.30;;;;;;5009013;28;20022;-77
2021/08/08 11:04:42;;;;;;;2.67;2.47;;;29.00;92.10;;;;;;4995345;28;20109;-77
2021/08/08 11:07:09;;;;;;;3.28;2.95;;;28.90;92.50;;;;;;5027535;28;20178;-77
2021/08/08 11:09:37;;;;;;;4.03;2.88;;;28.90;93.20;;;;;;5012980;28;20036;-77
2021/08/08 11:12:04;;;;;;;3.72;2.88;;;28.90;92.70;;;;;;5014827;28;20573;-77
2021/08/08 11:14:31;;;;;;;3.13;2.63;;;28.70;92.80;;;;;;4993581;28;20029;-77
2021/08/08 11:17:01;;;;;;;3.03;2.20;;;28.60;92.70;;;;;;5008843;28;20030;-77
2021/08/08 11:19:37;;;;;;;4.32;2.63;;;28.50;93.10;;;;;;5010812;28;20038;-77
2021/08/08 11:22:09;;;;;;;3.63;3.22;;;28.40;93.10;;;;;;5007867;28;20739;-78
2021/08/08 11:24:35;;;;;;;;;;;28.20;93.70;;;;;;5011131;28;20067;-77
2021/08/08 11:27:01;;;;;;;6.93;2.67;;;28.10;93.70;;;;;;5007545;28;20352;-77
2021/08/08 11:29:27;;;;;;;5.20;2.33;;;28.10;93.40;;;;;;5010773;28;20117;-77
2021/08/08 11:31:59;;;;;;;8.05;2.70;;;28.20;94.40;;;;;;5011010;28;20029;-78
2021/08/08 11:34:25;;;;;;;3.58;2.78;;;28.10;93.70;;;;;;5012600;28;20080;-77
2021/08/08 11:36:51;;;;;;;7.28;2.70;;;28.10;94.00;;;;;;4995665;28;20026;-77
2021/08/08 11:39:17;;;;;;;3.65;3.20;;;28.10;93.70;;;;;;5013189;28;20026;-77
2021/08/08 11:41:43;;;;;;;7.70;2.65;;;28.10;93.80;;;;;;5013239;28;20038;-77
2021/08/08 11:44:11;;;;;;;8.15;3.10;;;28.20;94.00;;;;;;5009004;28;20022;-77
2021/08/08 11:46:46;;;;;;;3.88;2.90;;;28.20;94.40;;;;;;5013262;28;20101;-77
2021/08/08 11:49:13;;;;;;;5.50;2.60;;;28.30;94.20;;;;;;5013129;28;20076;-77
2021/08/08 11:51:41;;;;;;;8.40;3.40;;;28.40;93.50;;;;;;5013072;28;20032;-77
2021/08/08 11:54:08;;;;;;;3.47;2.70;;;28.40;93.40;;;;;;5012263;28;20376;-77
2021/08/08 11:56:34;;;;;;;5.88;2.88;;;28.30;94.00;;;;;;5007092;28;20563;-77
2021/08/08 11:58:59;;;;;;;3.63;2.88;;;28.40;94.00;;;;;;5011611;28;20029;-77
2021/08/08 12:01:26;;;;;;;3.60;3.30;;;28.50;93.90;;;;;;5009656;28;20089;-77
2021/08/08 12:04:06;;;;;;;2.97;2.78;;;28.60;93.50;;;;;;5011784;28;20030;-77
2021/08/08 12:06:32;;;;;;;5.47;2.80;;;28.50;93.20;;;;;;5001546;28;20080;-77
2021/08/08 12:08:58;;;;;;;6.07;2.92;;;28.40;93.80;;;;;;5008946;28;20093;-76
2021/08/08 12:11:26;;;;;;;4.40;3.40;;;28.50;93.70;;;;;;5009348;28;20482;-77
2021/08/08 12:14:02;;;;;;;4.97;3.13;;;28.70;93.70;;;;;;5007124;28;20033;-77
2021/08/08 12:16:46;;;;;;;2.80;2.25;;;28.80;93.60;;;;;;5009836;28;20038;-77
2021/08/08 12:19:11;;;;;;;4.18;3.40;;;28.90;93.20;;;;;;5004340;28;20030;-77
2021/08/08 12:21:40;;;;;;;7.65;2.75;;;29.00;92.90;;;;;;5010187;28;20491;-77
2021/08/08 12:24:11;;;;;;;4.78;2.67;;;29.10;93.20;;;;;;5012781;28;20044;-77
2021/08/08 12:26:49;;;;;;;4.70;2.90;;;29.20;92.90;;;;;;4998034;28;20018;-77
2021/08/08 12:29:15;;;;;;;5.47;2.88;;;29.30;92.70;;;;;;5012830;28;20034;-77
2021/08/08 12:31:42;;;;;;;4.57;2.25;;;29.40;91.80;;;;;;5028157;28;20022;-77
2021/08/08 12:34:11;;;;;;;3.83;2.85;;;29.50;91.30;;;;;;5012665;28;20591;-77
2021/08/08 12:36:42;;;;;;;3.03;2.83;;;29.60;91.30;;;;;;5013404;28;20479;-77
2021/08/08 12:39:10;;;;;;;3.10;2.40;;;29.60;87.70;;;;;;5016648;28;20120;-77
2021/08/08 12:41:40;;;;;;;3.30;2.47;;;29.70;89.10;;;;;;5016996;28;20768;-77
2021/08/08 12:44:07;;;;;;;2.72;2.53;;;29.80;89.00;;;;;;5016514;28;20109;-77
2021/08/08 12:46:39;;;;;;;4.22;2.60;;;29.80;86.70;;;;;;5016447;28;20021;-77